sensor_id;sensor_type;location;lat;lon;timestamp;pressure;altitude;pressure_sealevel;temperature;humidity
49709;BME280;35601;55.902;13.606;2023-03-29T00:02:21;101008.78;;;-2.06;67.44
49709;BME280;35601;55.902;13.606;2023-03-29T00:04:46;101002.33;;;-1.81;66.80
49709;BME280;35601;55.902;13.606;2023-03-29T00:07:11;101001.54;;;-1.91;66.76
49709;BME280;35601;55.902;13.606;2023-03-29T00:09:36;101002.01;;;-1.75;66.54
49709;BME280;35601;55.902;13.606;2023-03-29T00:12:03;100996.70;;;-1.81;66.05
49709;BME280;35601;55.902;13.606;2023-03-29T00:14:27;100995.50;;;-1.70;65.98
49709;BME280;35601;55.902;13.606;2023-03-29T00:16:52;100998.78;;;-1.61;66.03
49709;BME280;35601;55.902;13.606;2023-03-29T00:19:19;101000.20;;;-1.51;66.03
49709;BME280;35601;55.902;13.606;2023-03-29T00:21:43;100999.66;;;-1.37;65.86
49709;BME280;35601;55.902;13.606;2023-03-29T00:24:10;100997.31;;;-1.60;66.28
49709;BME280;35601;55.902;13.606;2023-03-29T00:26:35;100996.41;;;-1.19;65.95
49709;BME280;35601;55.902;13.606;2023-03-29T00:28:59;100989.72;;;-1.11;65.68
49709;BME280;35601;55.902;13.606;2023-03-29T00:31:26;100990.82;;;-1.47;65.66
49709;BME280;35601;55.902;13.606;2023-03-29T00:33:50;100992.23;;;-1.36;66.40
49709;BME280;35601;55.902;13.606;2023-03-29T00:36:17;100986.43;;;-1.63;66.73
49709;BME280;35601;55.902;13.606;2023-03-29T00:38:43;100986.01;;;-1.45;66.95
49709;BME280;35601;55.902;13.606;2023-03-29T00:41:07;100982.47;;;-1.29;67.74
49709;BME280;35601;55.902;13.606;2023-03-29T00:45:58;100976.60;;;-1.50;68.04
49709;BME280;35601;55.902;13.606;2023-03-29T00:48:25;100976.85;;;-1.72;69.98
49709;BME280;35601;55.902;13.606;2023-03-29T00:50:52;100976.74;;;-1.65;70.10
49709;BME280;35601;55.902;13.606;2023-03-29T00:53:19;100973.98;;;-1.39;70.30
49709;BME280;35601;55.902;13.606;2023-03-29T00:55:45;100974.52;;;-1.64;69.97
49709;BME280;35601;55.902;13.606;2023-03-29T00:58:07;100970.46;;;-1.39;69.30
49709;BME280;35601;55.902;13.606;2023-03-29T01:00:36;100968.94;;;-0.92;68.53
49709;BME280;35601;55.902;13.606;2023-03-29T01:02:58;100961.91;;;-1.00;67.64
49709;BME280;35601;55.902;13.606;2023-03-29T01:05:27;100957.89;;;-1.33;67.74
49709;BME280;35601;55.902;13.606;2023-03-29T01:07:51;100957.79;;;-0.80;67.05
49709;BME280;35601;55.902;13.606;2023-03-29T01:10:16;100959.95;;;-0.91;66.48
49709;BME280;35601;55.902;13.606;2023-03-29T01:12:42;100956.26;;;-0.78;66.11
49709;BME280;35601;55.902;13.606;2023-03-29T01:15:05;100950.24;;;-1.05;66.03
49709;BME280;35601;55.902;13.606;2023-03-29T01:17:28;100949.47;;;-0.98;65.80
49709;BME280;35601;55.902;13.606;2023-03-29T01:19:58;100944.13;;;-0.93;65.42
49709;BME280;35601;55.902;13.606;2023-03-29T01:22:27;100942.69;;;-0.66;65.34
49709;BME280;35601;55.902;13.606;2023-03-29T01:24:54;100939.46;;;-0.69;65.31
49709;BME280;35601;55.902;13.606;2023-03-29T01:27:16;100936.67;;;-0.82;65.77
49709;BME280;35601;55.902;13.606;2023-03-29T01:29:37;100932.60;;;-0.80;65.93
49709;BME280;35601;55.902;13.606;2023-03-29T01:32:03;100924.37;;;-0.97;65.71
49709;BME280;35601;55.902;13.606;2023-03-29T01:34:33;100921.33;;;-0.94;65.76
49709;BME280;35601;55.902;13.606;2023-03-29T01:36:56;100916.16;;;-0.63;65.79
49709;BME280;35601;55.902;13.606;2023-03-29T01:39:18;100913.16;;;-0.85;66.01
49709;BME280;35601;55.902;13.606;2023-03-29T01:41:49;100906.37;;;-0.69;66.49
49709;BME280;35601;55.902;13.606;2023-03-29T01:44:10;100903.04;;;-0.58;66.25
49709;BME280;35601;55.902;13.606;2023-03-29T01:46:38;100898.80;;;-0.58;66.52
49709;BME280;35601;55.902;13.606;2023-03-29T01:49:00;100889.68;;;-0.60;66.64
49709;BME280;35601;55.902;13.606;2023-03-29T01:51:28;100886.79;;;-0.58;66.61
49709;BME280;35601;55.902;13.606;2023-03-29T01:53:53;100883.74;;;-0.92;67.21
49709;BME280;35601;55.902;13.606;2023-03-29T01:56:18;100877.85;;;-1.03;67.92
49709;BME280;35601;55.902;13.606;2023-03-29T01:58:41;100875.68;;;-0.86;68.25
49709;BME280;35601;55.902;13.606;2023-03-29T02:01:06;100871.81;;;-0.89;68.45
49709;BME280;35601;55.902;13.606;2023-03-29T02:03:31;100869.48;;;-0.94;68.79
49709;BME280;35601;55.902;13.606;2023-03-29T02:05:56;100865.51;;;-0.95;68.73
49709;BME280;35601;55.902;13.606;2023-03-29T02:08:21;100861.12;;;-1.07;69.12
49709;BME280;35601;55.902;13.606;2023-03-29T02:10:46;100863.19;;;-1.00;69.88
49709;BME280;35601;55.902;13.606;2023-03-29T02:13:12;100859.09;;;-1.26;70.94
49709;BME280;35601;55.902;13.606;2023-03-29T02:15:38;100856.17;;;-1.18;71.59
49709;BME280;35601;55.902;13.606;2023-03-29T02:18:02;100850.67;;;-1.38;71.75
49709;BME280;35601;55.902;13.606;2023-03-29T02:20:29;100846.42;;;-1.28;72.20
49709;BME280;35601;55.902;13.606;2023-03-29T02:23:00;100845.71;;;-1.40;72.91
49709;BME280;35601;55.902;13.606;2023-03-29T02:25:19;100839.76;;;-1.41;73.00
49709;BME280;35601;55.902;13.606;2023-03-29T02:27:44;100834.57;;;-1.25;73.41
49709;BME280;35601;55.902;13.606;2023-03-29T02:30:10;100828.93;;;-1.55;74.29
49709;BME280;35601;55.902;13.606;2023-03-29T02:32:41;100825.18;;;-1.88;75.90
49709;BME280;35601;55.902;13.606;2023-03-29T02:35:03;100820.70;;;-1.70;76.38
49709;BME280;35601;55.902;13.606;2023-03-29T02:37:26;100816.93;;;-2.13;77.23
49709;BME280;35601;55.902;13.606;2023-03-29T02:39:51;100813.50;;;-1.81;77.28
49709;BME280;35601;55.902;13.606;2023-03-29T02:42:17;100808.90;;;-1.80;78.01
49709;BME280;35601;55.902;13.606;2023-03-29T02:44:42;100802.97;;;-1.78;78.32
49709;BME280;35601;55.902;13.606;2023-03-29T02:47:12;100801.66;;;-2.07;78.47
49709;BME280;35601;55.902;13.606;2023-03-29T02:49:32;100794.22;;;-1.91;77.88
49709;BME280;35601;55.902;13.606;2023-03-29T02:52:04;100793.90;;;-1.98;79.28
49709;BME280;35601;55.902;13.606;2023-03-29T02:54:24;100790.64;;;-2.06;79.06
49709;BME280;35601;55.902;13.606;2023-03-29T02:56:54;100783.03;;;-1.93;79.00
49709;BME280;35601;55.902;13.606;2023-03-29T02:59:14;100776.15;;;-1.97;78.99
49709;BME280;35601;55.902;13.606;2023-03-29T03:01:40;100770.66;;;-3.23;79.01
49709;BME280;35601;55.902;13.606;2023-03-29T03:04:04;100775.61;;;-1.81;78.23
49709;BME280;35601;55.902;13.606;2023-03-29T03:06:30;100775.30;;;-1.88;78.28
49709;BME280;35601;55.902;13.606;2023-03-29T03:08:55;100775.60;;;-1.67;78.44
49709;BME280;35601;55.902;13.606;2023-03-29T03:11:21;100774.80;;;-1.92;78.44
49709;BME280;35601;55.902;13.606;2023-03-29T03:13:46;100771.66;;;-1.80;77.98
49709;BME280;35601;55.902;13.606;2023-03-29T03:16:11;100767.07;;;-1.45;77.98
49709;BME280;35601;55.902;13.606;2023-03-29T03:18:37;100766.59;;;-1.35;77.44
49709;BME280;35601;55.902;13.606;2023-03-29T03:21:02;100762.37;;;-1.39;76.47
49709;BME280;35601;55.902;13.606;2023-03-29T03:23:27;100759.25;;;-1.32;76.07
49709;BME280;35601;55.902;13.606;2023-03-29T03:25:53;100755.67;;;-1.39;75.31
49709;BME280;35601;55.902;13.606;2023-03-29T03:28:19;100752.35;;;-1.30;75.16
49709;BME280;35601;55.902;13.606;2023-03-29T03:30:44;100748.98;;;-1.62;75.01
49709;BME280;35601;55.902;13.606;2023-03-29T03:33:09;100744.73;;;-1.30;74.99
49709;BME280;35601;55.902;13.606;2023-03-29T03:35:34;100744.63;;;-1.48;75.41
49709;BME280;35601;55.902;13.606;2023-03-29T03:38:00;100742.73;;;-1.71;76.32
49709;BME280;35601;55.902;13.606;2023-03-29T03:40:25;100738.91;;;-1.74;76.28
49709;BME280;35601;55.902;13.606;2023-03-29T03:42:51;100736.70;;;-1.76;76.37
49709;BME280;35601;55.902;13.606;2023-03-29T03:45:16;100736.42;;;-1.78;76.46
49709;BME280;35601;55.902;13.606;2023-03-29T03:47:41;100728.67;;;-1.77;76.73
49709;BME280;35601;55.902;13.606;2023-03-29T03:50:08;100725.06;;;-1.82;76.83
49709;BME280;35601;55.902;13.606;2023-03-29T03:52:32;100727.41;;;-1.82;76.77
49709;BME280;35601;55.902;13.606;2023-03-29T03:54:58;100726.40;;;-1.89;76.94
49709;BME280;35601;55.902;13.606;2023-03-29T03:57:23;100726.60;;;-1.97;76.84
49709;BME280;35601;55.902;13.606;2023-03-29T03:59:50;100725.06;;;-1.54;76.15
49709;BME280;35601;55.902;13.606;2023-03-29T04:02:14;100725.24;;;-1.59;76.56
49709;BME280;35601;55.902;13.606;2023-03-29T04:04:39;100722.88;;;-1.44;75.37
49709;BME280;35601;55.902;13.606;2023-03-29T04:07:05;100720.23;;;-1.49;75.20
49709;BME280;35601;55.902;13.606;2023-03-29T04:09:31;100720.64;;;-1.40;75.69
49709;BME280;35601;55.902;13.606;2023-03-29T04:11:55;100723.13;;;-1.34;75.75
49709;BME280;35601;55.902;13.606;2023-03-29T04:14:21;100721.11;;;-1.31;75.47
49709;BME280;35601;55.902;13.606;2023-03-29T04:16:46;100719.15;;;-1.68;76.59
49709;BME280;35601;55.902;13.606;2023-03-29T04:19:12;100720.26;;;-1.61;76.59
49709;BME280;35601;55.902;13.606;2023-03-29T04:21:37;100718.43;;;-1.52;76.19
49709;BME280;35601;55.902;13.606;2023-03-29T04:24:03;100716.99;;;-1.42;76.22
49709;BME280;35601;55.902;13.606;2023-03-29T04:26:28;100717.45;;;-2.41;76.22
49709;BME280;35601;55.902;13.606;2023-03-29T04:28:53;100716.12;;;-1.67;76.47
49709;BME280;35601;55.902;13.606;2023-03-29T04:31:19;100713.75;;;-1.15;75.38
49709;BME280;35601;55.902;13.606;2023-03-29T04:33:44;100712.15;;;-1.02;75.24
49709;BME280;35601;55.902;13.606;2023-03-29T04:36:10;100709.19;;;-1.27;74.56
49709;BME280;35601;55.902;13.606;2023-03-29T04:38:35;100701.97;;;-0.75;74.60
49709;BME280;35601;55.902;13.606;2023-03-29T04:41:01;100703.79;;;-1.38;75.57
49709;BME280;35601;55.902;13.606;2023-03-29T04:43:26;100702.22;;;-1.42;75.73
49709;BME280;35601;55.902;13.606;2023-03-29T04:45:51;100697.74;;;-1.03;75.64
49709;BME280;35601;55.902;13.606;2023-03-29T04:48:16;100693.08;;;-1.02;75.71
49709;BME280;35601;55.902;13.606;2023-03-29T04:50:45;100689.07;;;-1.35;75.52
49709;BME280;35601;55.902;13.606;2023-03-29T04:53:07;100685.68;;;-1.53;76.12
49709;BME280;35601;55.902;13.606;2023-03-29T04:55:33;100686.34;;;-1.25;76.08
49709;BME280;35601;55.902;13.606;2023-03-29T04:57:58;100682.42;;;-1.15;76.02
49709;BME280;35601;55.902;13.606;2023-03-29T05:00:23;100678.39;;;-1.29;76.05
49709;BME280;35601;55.902;13.606;2023-03-29T05:02:49;100676.82;;;-1.08;76.23
49709;BME280;35601;55.902;13.606;2023-03-29T05:05:14;100670.51;;;-1.04;76.19
49709;BME280;35601;55.902;13.606;2023-03-29T05:07:39;100667.68;;;-0.93;76.92
49709;BME280;35601;55.902;13.606;2023-03-29T05:10:06;100665.87;;;-1.15;77.33
49709;BME280;35601;55.902;13.606;2023-03-29T05:12:30;100660.91;;;-0.98;77.49
49709;BME280;35601;55.902;13.606;2023-03-29T05:14:56;100659.45;;;-1.22;77.15
49709;BME280;35601;55.902;13.606;2023-03-29T05:17:21;100657.55;;;-1.29;77.27
49709;BME280;35601;55.902;13.606;2023-03-29T05:19:46;100654.59;;;-1.23;78.15
49709;BME280;35601;55.902;13.606;2023-03-29T05:22:12;100651.45;;;-1.19;78.02
49709;BME280;35601;55.902;13.606;2023-03-29T05:24:37;100650.21;;;-1.06;78.15
49709;BME280;35601;55.902;13.606;2023-03-29T05:27:03;100646.85;;;-1.17;78.83
49709;BME280;35601;55.902;13.606;2023-03-29T05:29:28;100642.49;;;-0.89;78.27
49709;BME280;35601;55.902;13.606;2023-03-29T05:31:54;100644.94;;;-1.01;78.12
49709;BME280;35601;55.902;13.606;2023-03-29T05:34:20;100645.01;;;-0.69;77.74
49709;BME280;35601;55.902;13.606;2023-03-29T05:36:45;100642.44;;;-0.93;78.30
49709;BME280;35601;55.902;13.606;2023-03-29T05:39:10;100636.54;;;-0.73;77.68
49709;BME280;35601;55.902;13.606;2023-03-29T05:41:36;100633.17;;;-0.72;78.01
49709;BME280;35601;55.902;13.606;2023-03-29T05:44:01;100632.91;;;-0.90;78.71
49709;BME280;35601;55.902;13.606;2023-03-29T05:46:26;100633.06;;;-1.16;78.94
49709;BME280;35601;55.902;13.606;2023-03-29T05:48:51;100630.88;;;-0.87;78.65
49709;BME280;35601;55.902;13.606;2023-03-29T05:51:17;100626.10;;;-0.91;78.46
49709;BME280;35601;55.902;13.606;2023-03-29T05:53:42;100623.93;;;-0.78;78.47
49709;BME280;35601;55.902;13.606;2023-03-29T05:56:08;100620.28;;;-0.84;78.40
49709;BME280;35601;55.902;13.606;2023-03-29T05:58:33;100619.25;;;-0.88;78.59
49709;BME280;35601;55.902;13.606;2023-03-29T06:00:58;100618.56;;;-0.83;78.75
49709;BME280;35601;55.902;13.606;2023-03-29T06:03:23;100616.05;;;-0.81;79.10
49709;BME280;35601;55.902;13.606;2023-03-29T06:05:55;100614.04;;;-0.94;79.44
49709;BME280;35601;55.902;13.606;2023-03-29T06:08:15;100607.95;;;-0.84;80.25
49709;BME280;35601;55.902;13.606;2023-03-29T06:10:39;100606.58;;;-0.98;80.26
49709;BME280;35601;55.902;13.606;2023-03-29T06:13:05;100604.15;;;-0.83;80.15
49709;BME280;35601;55.902;13.606;2023-03-29T06:15:30;100603.67;;;-0.82;80.51
49709;BME280;35601;55.902;13.606;2023-03-29T06:17:56;100601.36;;;-0.83;81.05
49709;BME280;35601;55.902;13.606;2023-03-29T06:20:21;100599.77;;;-1.17;83.45
49709;BME280;35601;55.902;13.606;2023-03-29T06:22:47;100598.29;;;-0.68;83.12
49709;BME280;35601;55.902;13.606;2023-03-29T06:25:12;100597.98;;;-0.62;83.10
49709;BME280;35601;55.902;13.606;2023-03-29T06:27:38;100597.81;;;-0.57;82.21
49709;BME280;35601;55.902;13.606;2023-03-29T06:30:04;100599.21;;;-0.57;82.44
49709;BME280;35601;55.902;13.606;2023-03-29T06:32:29;100598.25;;;-0.86;83.58
49709;BME280;35601;55.902;13.606;2023-03-29T06:34:54;100599.80;;;-0.62;84.50
49709;BME280;35601;55.902;13.606;2023-03-29T06:37:19;100601.19;;;-0.88;84.45
49709;BME280;35601;55.902;13.606;2023-03-29T06:39:44;100601.94;;;-0.66;84.80
49709;BME280;35601;55.902;13.606;2023-03-29T06:42:10;100607.34;;;-0.64;84.63
49709;BME280;35601;55.902;13.606;2023-03-29T06:44:35;100605.99;;;-0.38;84.00
49709;BME280;35601;55.902;13.606;2023-03-29T06:47:00;100604.59;;;-0.44;84.27
49709;BME280;35601;55.902;13.606;2023-03-29T06:49:26;100600.22;;;-0.58;85.26
49709;BME280;35601;55.902;13.606;2023-03-29T06:51:51;100596.35;;;-0.47;86.10
49709;BME280;35601;55.902;13.606;2023-03-29T06:54:17;100593.73;;;-0.63;86.59
49709;BME280;35601;55.902;13.606;2023-03-29T06:56:42;100592.61;;;-0.63;86.85
49709;BME280;35601;55.902;13.606;2023-03-29T06:59:08;100591.40;;;-0.21;86.53
49709;BME280;35601;55.902;13.606;2023-03-29T07:01:33;100587.10;;;-0.48;86.82
49709;BME280;35601;55.902;13.606;2023-03-29T07:03:59;100585.59;;;-0.37;87.77
49709;BME280;35601;55.902;13.606;2023-03-29T07:06:24;100590.46;;;-0.43;88.28
49709;BME280;35601;55.902;13.606;2023-03-29T07:08:49;100590.42;;;-0.90;88.91
49709;BME280;35601;55.902;13.606;2023-03-29T07:11:15;100589.54;;;-0.76;89.81
49709;BME280;35601;55.902;13.606;2023-03-29T07:13:42;100583.53;;;-0.83;90.39
49709;BME280;35601;55.902;13.606;2023-03-29T07:16:07;100580.20;;;-0.86;91.11
49709;BME280;35601;55.902;13.606;2023-03-29T07:18:32;100579.06;;;-0.90;92.08
49709;BME280;35601;55.902;13.606;2023-03-29T07:20:57;100582.56;;;-0.28;91.74
49709;BME280;35601;55.902;13.606;2023-03-29T07:23:22;100580.43;;;-0.53;92.01
49709;BME280;35601;55.902;13.606;2023-03-29T07:25:49;100582.73;;;-0.78;92.14
49709;BME280;35601;55.902;13.606;2023-03-29T07:28:14;100582.58;;;-0.72;92.64
49709;BME280;35601;55.902;13.606;2023-03-29T07:30:39;100585.46;;;-0.49;92.36
49709;BME280;35601;55.902;13.606;2023-03-29T07:33:04;100586.54;;;-0.68;92.15
49709;BME280;35601;55.902;13.606;2023-03-29T07:35:30;100583.50;;;-0.32;92.33
49709;BME280;35601;55.902;13.606;2023-03-29T07:37:55;100587.33;;;-0.55;93.68
49709;BME280;35601;55.902;13.606;2023-03-29T07:40:23;100584.39;;;-0.50;93.09
49709;BME280;35601;55.902;13.606;2023-03-29T07:42:48;100582.75;;;-0.37;93.54
49709;BME280;35601;55.902;13.606;2023-03-29T07:45:14;100583.85;;;-0.79;93.29
49709;BME280;35601;55.902;13.606;2023-03-29T07:47:39;100579.88;;;-0.84;94.86
49709;BME280;35601;55.902;13.606;2023-03-29T07:50:05;100577.30;;;-0.88;95.02
49709;BME280;35601;55.902;13.606;2023-03-29T07:52:29;100577.92;;;-0.72;96.24
49709;BME280;35601;55.902;13.606;2023-03-29T07:54:55;100579.67;;;-0.57;95.87
49709;BME280;35601;55.902;13.606;2023-03-29T07:57:20;100580.76;;;-0.46;95.74
49709;BME280;35601;55.902;13.606;2023-03-29T07:59:46;100582.28;;;-0.60;96.15
49709;BME280;35601;55.902;13.606;2023-03-29T08:02:11;100576.35;;;-0.23;95.92
49709;BME280;35601;55.902;13.606;2023-03-29T08:04:37;100579.15;;;-0.20;96.67
49709;BME280;35601;55.902;13.606;2023-03-29T08:07:02;100573.05;;;-0.10;97.01
49709;BME280;35601;55.902;13.606;2023-03-29T08:09:29;100574.13;;;-0.22;95.56
49709;BME280;35601;55.902;13.606;2023-03-29T08:11:53;100571.40;;;-0.44;94.99
49709;BME280;35601;55.902;13.606;2023-03-29T08:14:19;100567.66;;;-0.24;94.53
49709;BME280;35601;55.902;13.606;2023-03-29T08:16:45;100564.65;;;-0.09;94.22
49709;BME280;35601;55.902;13.606;2023-03-29T08:19:10;100565.78;;;-0.61;96.83
49709;BME280;35601;55.902;13.606;2023-03-29T08:21:36;100562.24;;;0.01;95.79
49709;BME280;35601;55.902;13.606;2023-03-29T08:24:01;100561.49;;;-0.36;95.65
49709;BME280;35601;55.902;13.606;2023-03-29T08:26:26;100560.53;;;-0.10;95.37
49709;BME280;35601;55.902;13.606;2023-03-29T08:28:52;100562.18;;;0.27;93.57
49709;BME280;35601;55.902;13.606;2023-03-29T08:31:18;100559.35;;;0.01;94.26
49709;BME280;35601;55.902;13.606;2023-03-29T08:33:43;100559.55;;;0.21;93.41
49709;BME280;35601;55.902;13.606;2023-03-29T08:36:09;100554.29;;;0.11;93.33
49709;BME280;35601;55.902;13.606;2023-03-29T08:38:34;100555.37;;;0.12;93.95
49709;BME280;35601;55.902;13.606;2023-03-29T08:40:59;100557.78;;;0.30;93.86
49709;BME280;35601;55.902;13.606;2023-03-29T08:43:44;100557.38;;;0.55;92.66
49709;BME280;35601;55.902;13.606;2023-03-29T08:46:02;100557.19;;;0.47;91.33
49709;BME280;35601;55.902;13.606;2023-03-29T08:48:22;100557.67;;;0.30;90.35
49709;BME280;35601;55.902;13.606;2023-03-29T08:50:44;100558.07;;;0.62;90.53
49709;BME280;35601;55.902;13.606;2023-03-29T08:53:13;100560.64;;;0.66;90.27
49709;BME280;35601;55.902;13.606;2023-03-29T08:55:37;100559.58;;;0.63;90.42
49709;BME280;35601;55.902;13.606;2023-03-29T08:58:00;100557.76;;;0.63;90.27
49709;BME280;35601;55.902;13.606;2023-03-29T09:00:31;100553.69;;;0.16;91.37
49709;BME280;35601;55.902;13.606;2023-03-29T09:02:51;100553.05;;;-0.14;91.58
49709;BME280;35601;55.902;13.606;2023-03-29T09:05:21;100553.60;;;0.27;92.78
49709;BME280;35601;55.902;13.606;2023-03-29T09:07:40;100550.54;;;0.22;93.20
49709;BME280;35601;55.902;13.606;2023-03-29T09:10:07;100553.20;;;0.51;92.53
49709;BME280;35601;55.902;13.606;2023-03-29T09:12:42;100553.29;;;0.62;92.61
49709;BME280;35601;55.902;13.606;2023-03-29T09:15:07;100551.17;;;0.33;92.04
49709;BME280;35601;55.902;13.606;2023-03-29T09:17:32;100551.41;;;0.59;92.03
49709;BME280;35601;55.902;13.606;2023-03-29T09:19:51;100550.67;;;0.27;92.95
49709;BME280;35601;55.902;13.606;2023-03-29T09:22:18;100549.72;;;0.20;92.46
49709;BME280;35601;55.902;13.606;2023-03-29T09:24:47;100552.81;;;-0.30;94.57
49709;BME280;35601;55.902;13.606;2023-03-29T09:27:07;100551.03;;;0.13;94.31
49709;BME280;35601;55.902;13.606;2023-03-29T09:29:42;100548.57;;;-0.10;94.80
49709;BME280;35601;55.902;13.606;2023-03-29T09:31:54;100545.99;;;0.11;94.05
49709;BME280;35601;55.902;13.606;2023-03-29T09:34:22;100545.56;;;-0.28;94.64
49709;BME280;35601;55.902;13.606;2023-03-29T09:36:50;100545.56;;;0.05;94.40
49709;BME280;35601;55.902;13.606;2023-03-29T09:39:13;100540.30;;;-0.14;94.59
49709;BME280;35601;55.902;13.606;2023-03-29T09:41:39;100536.87;;;0.05;94.56
49709;BME280;35601;55.902;13.606;2023-03-29T09:44:05;100531.67;;;-0.02;95.85
49709;BME280;35601;55.902;13.606;2023-03-29T09:46:33;100529.96;;;-0.20;96.43
49709;BME280;35601;55.902;13.606;2023-03-29T09:48:52;100529.95;;;0.07;96.48
49709;BME280;35601;55.902;13.606;2023-03-29T09:51:18;100525.80;;;0.26;95.83
49709;BME280;35601;55.902;13.606;2023-03-29T09:53:43;100526.21;;;0.18;95.81
49709;BME280;35601;55.902;13.606;2023-03-29T09:56:08;100526.31;;;0.05;95.53
49709;BME280;35601;55.902;13.606;2023-03-29T09:58:33;100524.29;;;-0.10;95.10
49709;BME280;35601;55.902;13.606;2023-03-29T10:00:59;100523.15;;;0.45;96.03
49709;BME280;35601;55.902;13.606;2023-03-29T10:03:25;100523.59;;;0.21;95.77
49709;BME280;35601;55.902;13.606;2023-03-29T10:05:50;100520.44;;;0.40;95.21
49709;BME280;35601;55.902;13.606;2023-03-29T10:08:17;100519.31;;;0.40;95.56
49709;BME280;35601;55.902;13.606;2023-03-29T10:10:41;100519.15;;;0.64;95.76
49709;BME280;35601;55.902;13.606;2023-03-29T10:13:08;100521.49;;;0.69;95.52
49709;BME280;35601;55.902;13.606;2023-03-29T10:15:30;100521.49;;;0.48;95.04
49709;BME280;35601;55.902;13.606;2023-03-29T10:17:57;100517.32;;;0.67;95.27
49709;BME280;35601;55.902;13.606;2023-03-29T10:20:20;100518.71;;;0.68;94.83
49709;BME280;35601;55.902;13.606;2023-03-29T10:22:47;100516.07;;;0.94;93.93
49709;BME280;35601;55.902;13.606;2023-03-29T10:25:13;100516.79;;;0.63;93.91
49709;BME280;35601;55.902;13.606;2023-03-29T10:27:41;100518.09;;;0.93;93.08
49709;BME280;35601;55.902;13.606;2023-03-29T10:30:08;100519.97;;;1.10;91.78
49709;BME280;35601;55.902;13.606;2023-03-29T10:32:31;100522.01;;;1.00;91.30
49709;BME280;35601;55.902;13.606;2023-03-29T10:34:52;100519.13;;;1.06;90.90
49709;BME280;35601;55.902;13.606;2023-03-29T10:37:19;100522.38;;;0.91;90.77
49709;BME280;35601;55.902;13.606;2023-03-29T10:39:44;100519.42;;;1.39;90.12
49709;BME280;35601;55.902;13.606;2023-03-29T10:42:12;100517.26;;;1.41;89.63
49709;BME280;35601;55.902;13.606;2023-03-29T10:44:35;100518.20;;;1.12;89.47
49709;BME280;35601;55.902;13.606;2023-03-29T10:47:13;100518.24;;;1.61;89.21
49709;BME280;35601;55.902;13.606;2023-03-29T10:49:26;100518.18;;;1.27;88.92
49709;BME280;35601;55.902;13.606;2023-03-29T10:51:51;100520.70;;;1.50;88.79
49709;BME280;35601;55.902;13.606;2023-03-29T10:54:17;100518.29;;;1.47;88.56
49709;BME280;35601;55.902;13.606;2023-03-29T10:56:43;100518.27;;;1.31;89.21
49709;BME280;35601;55.902;13.606;2023-03-29T10:59:15;100511.96;;;1.35;89.18
49709;BME280;35601;55.902;13.606;2023-03-29T11:01:37;100513.77;;;1.48;88.28
49709;BME280;35601;55.902;13.606;2023-03-29T11:04:06;100509.66;;;1.52;88.17
49709;BME280;35601;55.902;13.606;2023-03-29T11:06:26;100511.34;;;1.73;88.12
49709;BME280;35601;55.902;13.606;2023-03-29T11:08:53;100507.09;;;1.51;87.94
49709;BME280;35601;55.902;13.606;2023-03-29T11:11:28;100505.33;;;1.66;87.41
49709;BME280;35601;55.902;13.606;2023-03-29T11:13:44;100502.72;;;1.48;87.06
49709;BME280;35601;55.902;13.606;2023-03-29T11:16:10;100496.32;;;1.97;86.65
49709;BME280;35601;55.902;13.606;2023-03-29T11:18:44;100496.26;;;1.97;86.17
49709;BME280;35601;55.902;13.606;2023-03-29T11:21:00;100495.71;;;1.59;85.61
49709;BME280;35601;55.902;13.606;2023-03-29T11:23:31;100496.12;;;1.71;86.23
49709;BME280;35601;55.902;13.606;2023-03-29T11:25:52;100492.11;;;1.75;86.64
49709;BME280;35601;55.902;13.606;2023-03-29T11:28:16;100493.06;;;1.69;86.57
49709;BME280;35601;55.902;13.606;2023-03-29T11:30:41;100494.10;;;1.31;87.77
49709;BME280;35601;55.902;13.606;2023-03-29T11:33:09;100487.97;;;1.73;87.26
49709;BME280;35601;55.902;13.606;2023-03-29T11:35:46;100490.43;;;1.58;87.97
49709;BME280;35601;55.902;13.606;2023-03-29T11:37:57;100485.05;;;1.29;88.56
49709;BME280;35601;55.902;13.606;2023-03-29T11:40:29;100489.19;;;1.38;88.65
49709;BME280;35601;55.902;13.606;2023-03-29T11:42:44;100484.63;;;1.70;89.11
49709;BME280;35601;55.902;13.606;2023-03-29T11:45:14;100481.02;;;1.76;88.59
49709;BME280;35601;55.902;13.606;2023-03-29T11:47:37;100485.26;;;1.39;88.78
49709;BME280;35601;55.902;13.606;2023-03-29T11:50:03;100483.39;;;1.18;89.34
49709;BME280;35601;55.902;13.606;2023-03-29T11:52:31;100483.68;;;1.33;89.30
49709;BME280;35601;55.902;13.606;2023-03-29T11:54:55;100485.22;;;1.27;89.14
49709;BME280;35601;55.902;13.606;2023-03-29T11:57:22;100478.64;;;1.21;89.34
49709;BME280;35601;55.902;13.606;2023-03-29T11:59:44;100479.37;;;1.49;89.00
49709;BME280;35601;55.902;13.606;2023-03-29T12:02:14;100476.57;;;1.69;88.72
49709;BME280;35601;55.902;13.606;2023-03-29T12:04:39;100472.46;;;1.58;88.95
49709;BME280;35601;55.902;13.606;2023-03-29T12:07:10;100464.94;;;1.73;87.97
49709;BME280;35601;55.902;13.606;2023-03-29T12:09:30;100465.12;;;1.95;87.56
49709;BME280;35601;55.902;13.606;2023-03-29T12:11:53;100462.18;;;1.92;87.14
49709;BME280;35601;55.902;13.606;2023-03-29T12:14:19;100465.57;;;2.01;86.82
49709;BME280;35601;55.902;13.606;2023-03-29T12:16:45;100461.73;;;1.94;87.13
49709;BME280;35601;55.902;13.606;2023-03-29T12:19:13;100458.61;;;2.11;86.40
49709;BME280;35601;55.902;13.606;2023-03-29T12:21:32;100457.62;;;2.13;85.51
49709;BME280;35601;55.902;13.606;2023-03-29T12:23:57;100456.15;;;2.16;85.54
49709;BME280;35601;55.902;13.606;2023-03-29T12:26:34;100453.44;;;1.94;85.88
49709;BME280;35601;55.902;13.606;2023-03-29T12:31:17;100447.81;;;2.15;86.49
49709;BME280;35601;55.902;13.606;2023-03-29T12:33:53;100440.79;;;2.24;87.24
49709;BME280;35601;55.902;13.606;2023-03-29T12:36:13;100436.90;;;2.17;86.49
49709;BME280;35601;55.902;13.606;2023-03-29T12:38:29;100437.37;;;2.29;86.48